Time;durP1;ratioP1;P1;durP2;ratioP2;P2;SDS_P1;SDS_P2;PMS_P1;PMS_P2;Temp;Humidity;BMP_temperature;BMP_pressure;BME280_temperature;BME280_humidity;BME280_pressure;Samples;Min_cycle;Max_cycle;Signal;HPM_P1;HPM_P2
2021/12/23 00:00:09;;;;;;;28.02;15.63;;;;;;;5.38;53.25;101717.91;4974435;28;20107;-65
2021/12/23 00:02:35;;;;;;;30.27;15.60;;;;;;;5.65;52.86;101718.06;4991621;28;20035;-62
2021/12/23 00:05:00;;;;;;;29.70;14.95;;;;;;;5.89;51.69;101729.56;4976415;28;20126;-62
2021/12/23 00:07:25;;;;;;;29.67;15.07;;;;;;;6.48;49.97;101730.94;4957976;28;20117;-62
2021/12/23 00:10:09;;;;;;;30.27;15.02;;;;;;;6.18;50.38;101737.63;4978467;28;20050;-62
2021/12/23 00:12:38;;;;;;;28.58;15.25;;;;;;;6.53;49.45;101729.06;4980130;28;20026;-61
2021/12/23 00:15:28;;;;;;;29.95;15.23;;;;;;;6.04;50.89;101741.78;4994890;28;20018;-63
2021/12/23 00:18:01;;;;;;;29.38;15.60;;;;;;;6.04;50.88;101753.47;4993776;28;20030;-63
2021/12/23 00:25:49;;;;;;;29.30;15.10;;;;;;;5.66;50.90;101724.31;4994109;28;20082;-63
2021/12/23 00:28:15;;;;;;;30.93;15.50;;;;;;;5.29;51.24;101717.47;4978188;28;20042;-62
2021/12/23 00:30:40;;;;;;;25.35;14.32;;;;;;;5.39;50.83;101703.22;4995405;28;20027;-62
2021/12/23 00:33:05;;;;;;;27.35;14.35;;;;;;;5.48;51.21;101712.63;4962120;28;20039;-62
2021/12/23 00:35:31;;;;;;;29.85;15.32;;;;;;;5.49;51.04;101714.28;4978142;28;20026;-62
2021/12/23 00:38:10;;;;;;;30.17;15.80;;;;;;;5.22;51.92;101703.22;4978207;28;20042;-62
2021/12/23 00:40:36;;;;;;;31.42;15.35;;;;;;;5.12;52.83;101682.09;4966136;28;20058;-64
2021/12/23 00:43:01;;;;;;;27.95;14.88;;;;;;;4.92;53.46;101681.78;4977622;28;20034;-61
2021/12/23 00:45:27;;;;;;;29.77;14.50;;;;;;;4.69;53.44;101697.09;4995363;28;20031;-63
2021/12/23 00:47:52;;;;;;;31.65;16.13;;;;;;;4.96;52.82;101689.16;4995072;28;20030;-63
2021/12/23 00:50:17;;;;;;;34.40;16.38;;;;;;;5.31;51.81;101684.59;4994828;28;20030;-63
2021/12/23 00:52:43;;;;;;;33.30;14.80;;;;;;;4.46;53.99;101666.25;4977900;28;20034;-62
2021/12/23 00:55:11;;;;;;;29.15;15.75;;;;;;;4.25;54.66;101653.34;4977608;28;20026;-62
2021/12/23 00:57:39;;;;;;;29.33;15.57;;;;;;;4.79;53.53;101640.25;4994992;28;20488;-63
2021/12/23 01:00:08;;;;;;;29.77;14.40;;;;;;;4.59;53.70;101642.59;4962241;28;20027;-61
2021/12/23 01:02:33;;;;;;;31.25;16.55;;;;;;;4.65;52.65;101637.00;4994830;28;20022;-60
2021/12/23 01:04:59;;;;;;;31.70;16.13;;;;;;;4.84;52.18;101642.25;4977488;28;20046;-63
2021/12/23 01:07:25;;;;;;;30.52;16.17;;;;;;;5.14;51.19;101652.81;4961039;28;20037;-62
2021/12/23 01:09:51;;;;;;;29.70;15.40;;;;;;;5.49;50.48;101653.59;4977628;28;20034;-63
2021/12/23 01:12:20;;;;;;;30.13;14.20;;;;;;;5.23;51.22;101642.31;4994378;28;20038;-64
2021/12/23 01:14:59;;;;;;;28.27;14.70;;;;;;;5.06;51.98;101639.63;4994409;28;20098;-63
2021/12/23 01:19:55;;;;;;;30.30;16.17;;;;;;;4.86;51.99;101640.09;4994575;28;20062;-63
2021/12/23 01:22:22;;;;;;;31.65;15.82;;;;;;;4.71;52.14;101632.50;4994049;28;20480;-63
2021/12/23 01:24:49;;;;;;;32.37;16.23;;;;;;;4.67;53.17;101631.34;4994004;28;20065;-64
2021/12/23 01:27:15;;;;;;;29.58;15.65;;;;;;;4.27;53.44;101638.47;4976808;28;20329;-60
2021/12/23 01:29:40;;;;;;;30.98;15.90;;;;;;;4.57;53.09;101631.16;4977398;28;20031;-61
2021/12/23 01:32:07;;;;;;;32.72;16.42;;;;;;;4.94;52.44;101628.00;4977033;28;20038;-63
2021/12/23 01:34:35;;;;;;;34.20;16.35;;;;;;;4.82;52.77;101628.91;4977400;28;20155;-62
2021/12/23 01:37:03;;;;;;;31.00;16.83;;;;;;;5.16;51.66;101628.91;4961050;28;20054;-61
2021/12/23 01:39:28;;;;;;;30.48;15.60;;;;;;;4.81;52.83;101624.53;4994024;28;20037;-62
2021/12/23 01:41:53;;;;;;;34.58;17.08;;;;;;;4.75;52.97;101625.50;4994113;28;20432;-62
2021/12/23 01:44:19;;;;;;;33.30;17.15;;;;;;;5.14;51.88;101631.06;4976384;28;20035;-61
2021/12/23 01:46:44;;;;;;;34.97;16.98;;;;;;;5.23;51.26;101629.56;4994329;28;20050;-64
2021/12/23 01:49:10;;;;;;;39.65;18.48;;;;;;;4.61;53.40;101622.25;4993455;28;20027;-64
2021/12/23 01:51:36;;;;;;;35.92;18.25;;;;;;;4.44;53.93;101624.94;4994110;28;20062;-60
2021/12/23 01:54:02;;;;;;;37.58;19.73;;;;;;;4.64;53.82;101620.97;4977150;28;20031;-63
2021/12/23 01:56:27;;;;;;;37.05;18.70;;;;;;;4.61;53.87;101624.16;4993618;28;20030;-62
2021/12/23 01:58:53;;;;;;;38.35;19.27;;;;;;;4.64;53.76;101610.09;4976652;28;20038;-64
2021/12/23 02:01:18;;;;;;;39.22;18.77;;;;;;;4.66;53.29;101602.50;4976285;28;20035;-64
2021/12/23 02:03:44;;;;;;;41.78;19.27;;;;;;;4.39;54.35;101596.88;4976794;28;20038;-62
2021/12/23 02:06:10;;;;;;;39.15;20.63;;;;;;;4.59;53.31;101586.38;4976407;28;20027;-62
2021/12/23 02:08:38;;;;;;;40.90;20.85;;;;;;;4.40;53.97;101587.66;4993568;28;20030;-63
2021/12/23 02:11:05;;;;;;;37.80;18.88;;;;;;;3.80;55.59;101578.91;4993753;28;20110;-63
2021/12/23 02:13:31;;;;;;;40.35;19.27;;;;;;;4.21;54.91;101568.84;4993158;28;20090;-60
2021/12/23 02:15:57;;;;;;;37.70;19.35;;;;;;;4.08;54.64;101552.88;4993371;28;20034;-63
2021/12/23 02:18:23;;;;;;;43.67;18.77;;;;;;;4.16;54.60;101539.72;4992909;28;20034;-64
2021/12/23 02:20:49;;;;;;;38.55;19.55;;;;;;;3.89;55.57;101544.09;4976439;28;20031;-62
2021/12/23 02:23:14;;;;;;;37.45;17.80;;;;;;;3.34;57.69;101551.66;4992873;28;20031;-61
2021/12/23 02:25:40;;;;;;;40.42;20.70;;;;;;;3.86;55.96;101544.56;4993188;28;20059;-62
2021/12/23 02:28:08;;;;;;;41.30;20.70;;;;;;;4.32;55.16;101546.25;4976129;28;20050;-62
2021/12/23 02:30:39;;;;;;;42.65;19.92;;;;;;;4.50;54.52;101552.53;4959990;28;20030;-60
2021/12/23 02:33:06;;;;;;;40.50;21.00;;;;;;;4.76;54.03;101548.38;4993364;28;20058;-62
2021/12/23 02:35:32;;;;;;;41.38;21.55;;;;;;;4.16;55.57;101545.16;4993015;28;20030;-63
2021/12/23 02:37:57;;;;;;;42.33;21.40;;;;;;;4.05;55.42;101546.03;4993078;28;20027;-64
2021/12/23 02:40:32;;;;;;;43.95;22.30;;;;;;;4.04;55.59;101547.13;4992644;28;20129;-65
2021/12/23 02:43:23;;;;;;;45.10;21.95;;;;;;;3.77;57.69;101542.25;4993029;28;20030;-60
2021/12/23 02:45:52;;;;;;;46.70;22.55;;;;;;;4.02;56.50;101538.38;4992850;28;20047;-63
2021/12/23 02:48:19;;;;;;;43.72;22.70;;;;;;;4.56;54.06;101534.44;4992676;28;20029;-63
2021/12/23 02:50:47;;;;;;;47.10;23.05;;;;;;;4.82;54.40;101525.66;4993005;28;20027;-62
2021/12/23 02:53:13;;;;;;;48.63;23.10;;;;;;;3.94;56.69;101520.59;4975709;28;20030;-62
2021/12/23 02:55:39;;;;;;;54.92;24.58;;;;;;;4.78;54.64;101513.63;4992385;28;20042;-61
2021/12/23 02:58:05;;;;;;;53.20;24.92;;;;;;;4.66;55.37;101510.16;4959549;28;20027;-63
2021/12/23 03:00:30;;;;;;;51.35;24.60;;;;;;;3.75;57.35;101508.28;4992488;28;20054;-62
2021/12/23 03:02:56;;;;;;;56.72;27.05;;;;;;;3.38;58.65;101506.72;4992760;28;20039;-63
2021/12/23 03:05:22;;;;;;;50.60;25.42;;;;;;;4.27;57.21;101501.94;4992081;28;20094;-63
2021/12/23 03:07:47;;;;;;;62.42;27.65;;;;;;;4.16;56.65;101496.31;4992521;28;20038;-63
2021/12/23 03:10:13;;;;;;;60.67;27.35;;;;;;;4.55;56.00;101503.78;4992696;28;20046;-63
2021/12/23 03:12:38;;;;;;;63.33;27.95;;;;;;;4.27;56.16;101501.94;4975094;28;20803;-62
2021/12/23 03:15:05;;;;;;;64.05;29.00;;;;;;;4.82;55.53;101506.63;4992406;28;20023;-62
2021/12/23 03:17:30;;;;;;;69.88;30.38;;;;;;;4.78;55.26;101502.75;4991980;28;20027;-64
2021/12/23 03:19:56;;;;;;;69.78;27.80;;;;;;;4.67;56.27;101500.97;4992481;28;20041;-62
2021/12/23 03:22:21;;;;;;;67.72;29.05;;;;;;;3.95;58.53;101486.97;4991961;28;20027;-63
2021/12/23 03:24:46;;;;;;;71.82;32.10;;;;;;;4.01;58.11;101460.78;4974928;28;20066;-62
2021/12/23 03:27:12;;;;;;;74.47;31.00;;;;;;;3.59;60.43;101452.91;4975264;28;20037;-60
2021/12/23 03:29:37;;;;;;;70.90;29.50;;;;;;;3.29;60.86;101453.13;4974646;28;20031;-63
2021/12/23 03:32:03;;;;;;;70.32;29.27;;;;;;;3.31;61.36;101456.41;4975144;28;20030;-62
2021/12/23 03:34:28;;;;;;;78.25;31.27;;;;;;;3.04;61.91;101460.47;4991881;28;20117;-62
2021/12/23 03:36:54;;;;;;;72.68;29.83;;;;;;;3.60;60.37;101470.84;4992104;28;20058;-64
2021/12/23 03:39:19;;;;;;;78.68;32.65;;;;;;;4.07;59.09;101470.66;4991474;28;20034;-61
2021/12/23 03:41:46;;;;;;;70.50;27.98;;;;;;;3.81;58.94;101458.50;4974696;28;20113;-65
2021/12/23 03:44:12;;;;;;;78.15;32.33;;;;;;;3.99;58.57;101452.03;4975085;28;20030;-62
2021/12/23 03:46:38;;;;;;;77.45;30.35;;;;;;;3.84;59.17;101435.50;4991652;28;20067;-63
2021/12/23 03:49:05;;;;;;;79.00;31.05;;;;;;;3.71;59.08;101437.44;4992069;28;20035;-64
2021/12/23 03:51:30;;;;;;;78.55;30.48;;;;;;;5.18;55.64;101458.22;4991716;28;20078;-62
2021/12/23 03:53:56;;;;;;;83.57;32.78;;;;;;;3.50;59.77;101457.91;4974875;28;20073;-63
2021/12/23 03:56:21;;;;;;;79.93;29.17;;;;;;;4.94;55.70;101454.09;4974890;28;20476;-61
2021/12/23 03:58:47;;;;;;;78.10;31.92;;;;;;;3.63;58.54;101470.38;4991610;28;20094;-63
2021/12/23 04:01:13;;;;;;;78.65;30.58;;;;;;;4.23;58.51;101458.16;4991944;28;20023;-61
2021/12/23 04:03:38;;;;;;;78.70;31.98;;;;;;;4.07;58.15;101465.22;4991748;28;20795;-63
2021/12/23 04:06:04;;;;;;;80.63;32.17;;;;;;;3.94;58.28;101477.19;4974526;28;20062;-63
2021/12/23 04:08:29;;;;;;;77.93;31.80;;;;;;;3.87;59.09;101486.56;4974483;28;20033;-63
2021/12/23 04:10:58;;;;;;;75.00;29.73;;;;;;;4.53;56.87;101462.44;4974852;28;20125;-64
2021/12/23 04:13:25;;;;;;;77.70;29.88;;;;;;;4.36;57.52;101465.16;4991770;28;20082;-62
2021/12/23 04:15:51;;;;;;;81.15;32.22;;;;;;;3.95;58.19;101476.13;4974442;28;20094;-62
2021/12/23 04:18:17;;;;;;;78.82;30.85;;;;;;;4.34;57.82;101462.69;4974534;28;20042;-61
2021/12/23 04:20:53;;;;;;;82.80;30.80;;;;;;;4.22;58.13;101444.84;4974484;28;20034;-62
2021/12/23 04:23:19;;;;;;;79.55;30.83;;;;;;;4.70;56.48;101448.84;4959974;28;20046;-62
2021/12/23 04:25:45;;;;;;;75.53;29.20;;;;;;;5.35;54.56;101443.75;4991363;28;20484;-62
2021/12/23 04:28:10;;;;;;;85.80;31.00;;;;;;;5.69;53.36;101458.00;4991770;28;20078;-63
2021/12/23 04:30:35;;;;;;;78.88;30.83;;;;;;;5.03;54.94;101450.69;4974156;28;20082;-62
2021/12/23 04:33:01;;;;;;;81.65;31.10;;;;;;;4.67;56.62;101441.19;4991651;28;20027;-64
2021/12/23 04:35:26;;;;;;;77.20;29.88;;;;;;;5.32;55.32;101452.41;4958379;28;20042;-64
2021/12/23 04:37:52;;;;;;;80.10;30.85;;;;;;;5.31;54.57;101456.19;4974058;28;20055;-63
2021/12/23 04:40:17;;;;;;;77.57;29.73;;;;;;;5.20;54.81;101444.38;4991344;28;20117;-62
2021/12/23 04:42:43;;;;;;;81.38;31.58;;;;;;;5.17;55.03;101434.00;4991132;28;20108;-60
2021/12/23 04:45:09;;;;;;;81.00;30.20;;;;;;;5.38;54.20;101422.31;4991564;28;20037;-61
2021/12/23 04:47:35;;;;;;;78.85;29.95;;;;;;;5.65;53.63;101413.38;4991235;28;20031;-62
2021/12/23 04:50:01;;;;;;;74.35;29.45;;;;;;;6.18;52.69;101422.59;4992506;28;20505;-64
2021/12/23 04:52:26;;;;;;;79.22;30.42;;;;;;;5.25;54.61;101426.25;4978172;28;20042;-64
2021/12/23 04:54:51;;;;;;;86.60;30.70;;;;;;;4.27;58.06;101409.63;4994766;28;20025;-62
2021/12/23 04:57:17;;;;;;;85.65;31.90;;;;;;;4.63;57.19;101407.44;4994832;28;20039;-61
2021/12/23 04:59:42;;;;;;;81.50;29.40;;;;;;;5.01;56.34;101414.78;4961458;28;20054;-62
2021/12/23 05:02:08;;;;;;;76.35;29.17;;;;;;;5.09;55.28;101421.69;4978006;28;20039;-61
2021/12/23 05:04:33;;;;;;;79.03;29.60;;;;;;;4.96;56.17;101416.59;4977741;28;20034;-65
2021/12/23 05:06:58;;;;;;;83.40;30.90;;;;;;;4.47;57.89;101406.41;4994338;28;20034;-63
2021/12/23 05:09:24;;;;;;;81.05;31.25;;;;;;;4.63;57.30;101399.31;4994746;28;20062;-63
2021/12/23 05:11:49;;;;;;;79.55;31.13;;;;;;;4.58;56.67;101396.53;4994286;28;20031;-62
2021/12/23 05:14:14;;;;;;;74.82;29.88;;;;;;;4.41;57.93;101388.41;4977480;28;20038;-61
2021/12/23 05:16:40;;;;;;;83.55;29.58;;;;;;;4.71;57.99;101382.59;4977170;28;20034;-63
2021/12/23 05:19:05;;;;;;;84.80;30.02;;;;;;;4.86;56.83;101396.38;4977440;28;20078;-62
2021/12/23 05:21:31;;;;;;;77.25;29.85;;;;;;;4.84;57.13;101386.84;4994701;28;20057;-62
2021/12/23 05:23:56;;;;;;;70.53;27.13;;;;;;;4.61;58.33;101382.44;4977012;28;21057;-63
2021/12/23 05:26:22;;;;;;;82.05;30.75;;;;;;;4.90;57.57;101375.78;4977035;28;20039;-62
2021/12/23 05:28:47;;;;;;;80.18;29.20;;;;;;;4.00;60.06;101364.16;4977001;28;20031;-63
2021/12/23 05:31:13;;;;;;;83.68;27.33;;;;;;;5.08;57.42;101365.69;4994346;28;20102;-64
2021/12/23 05:33:38;;;;;;;82.15;28.75;;;;;;;5.35;56.49;101370.34;4994197;28;20034;-63
2021/12/23 05:36:04;;;;;;;78.32;27.98;;;;;;;5.12;57.56;101372.22;4976994;28;20030;-62
2021/12/23 05:38:29;;;;;;;79.57;26.48;;;;;;;4.53;58.91;101359.25;4994074;28;20031;-63
2021/12/23 05:40:54;;;;;;;76.20;27.48;;;;;;;4.90;58.20;101362.22;4993865;28;20083;-62
2021/12/23 05:43:20;;;;;;;79.50;27.52;;;;;;;5.18;56.68;101344.03;4993885;28;20031;-62
2021/12/23 05:45:45;;;;;;;73.15;28.02;;;;;;;5.02;56.66;101340.31;4976570;28;20031;-62
2021/12/23 05:48:12;;;;;;;81.05;29.58;;;;;;;4.53;57.77;101338.38;4976851;28;20043;-61
2021/12/23 05:50:37;;;;;;;78.05;28.95;;;;;;;4.07;59.84;101336.84;4993809;28;20035;-61
2021/12/23 05:53:03;;;;;;;78.65;27.10;;;;;;;4.21;59.99;101334.63;4976249;28;20031;-62
2021/12/23 05:55:28;;;;;;;80.72;29.90;;;;;;;4.46;58.97;101351.28;4993972;28;20038;-62
2021/12/23 05:57:54;;;;;;;82.88;28.13;;;;;;;4.12;59.09;101342.34;4976105;28;20090;-61
2021/12/23 06:00:23;;;;;;;74.55;27.45;;;;;;;5.23;55.95;101349.56;4993865;28;20030;-64
2021/12/23 06:02:48;;;;;;;78.35;30.00;;;;;;;5.26;55.71;101334.63;4992778;28;20027;-64
2021/12/23 06:05:14;;;;;;;72.25;27.33;;;;;;;5.04;56.99;101327.31;4993349;28;20046;-63
2021/12/23 06:07:40;;;;;;;75.80;27.33;;;;;;;4.77;57.97;101324.53;4976783;28;20039;-64
2021/12/23 06:10:06;;;;;;;81.57;28.98;;;;;;;4.55;59.19;101319.09;4975955;28;20050;-63
2021/12/23 06:12:31;;;;;;;77.30;28.02;;;;;;;5.39;55.78;101322.50;4976855;28;20034;-63
2021/12/23 06:14:57;;;;;;;80.10;28.35;;;;;;;5.97;54.28;101322.81;4975912;28;20073;-62
2021/12/23 06:17:22;;;;;;;74.20;27.60;;;;;;;6.05;53.81;101324.22;4993400;28;20026;-61
2021/12/23 06:19:48;;;;;;;74.25;29.60;;;;;;;5.55;54.87;101316.16;4993145;28;20062;-62
2021/12/23 06:22:13;;;;;;;72.50;27.27;;;;;;;5.29;55.68;101317.00;4976111;28;20093;-63
2021/12/23 06:24:43;;;;;;;73.15;27.85;;;;;;;5.22;56.13;101331.59;4976039;28;20110;-64
2021/12/23 06:27:09;;;;;;;73.65;27.30;;;;;;;4.85;56.65;101351.28;4976713;28;20058;-62
2021/12/23 06:29:35;;;;;;;72.30;27.00;;;;;;;5.16;56.80;101339.97;4960301;28;20047;-63
2021/12/23 06:32:00;;;;;;;74.82;27.55;;;;;;;4.98;57.36;101332.94;4975443;28;20090;-63
2021/12/23 06:34:26;;;;;;;72.60;28.23;;;;;;;5.03;57.15;101336.53;4993368;28;20039;-61
2021/12/23 06:36:51;;;;;;;75.38;27.17;;;;;;;5.01;56.07;101327.00;4992487;28;20035;-60
2021/12/23 06:39:16;;;;;;;75.78;28.98;;;;;;;4.89;57.86;101325.22;4992955;28;20030;-61
2021/12/23 06:41:42;;;;;;;74.88;27.67;;;;;;;5.36;56.75;101328.47;4975849;28;20082;-60
2021/12/23 06:44:07;;;;;;;73.75;25.92;;;;;;;5.17;57.20;101314.41;4943624;28;20034;-61
2021/12/23 06:46:32;;;;;;;71.32;26.60;;;;;;;6.04;54.60;101300.81;4975732;28;20137;-62
2021/12/23 06:48:58;;;;;;;68.65;26.92;;;;;;;5.59;56.29;101308.31;4975511;28;20042;-63
2021/12/23 06:51:26;;;;;;;70.82;26.13;;;;;;;6.05;53.52;101297.81;4993041;28;20117;-63
2021/12/23 06:53:52;;;;;;;68.13;27.15;;;;;;;5.36;55.86;101291.25;4992450;28;20106;-62
2021/12/23 06:56:18;;;;;;;66.75;24.45;;;;;;;5.02;56.86;101280.53;4959669;28;20106;-65
2021/12/23 06:58:48;;;;;;;66.97;26.65;;;;;;;4.66;58.89;101282.03;4992703;28;20038;-62
2021/12/23 07:01:17;;;;;;;68.20;26.70;;;;;;;5.08;58.37;101284.16;4992369;28;20105;-64
2021/12/23 07:06:24;;;;;;;78.53;27.17;;;;;;;5.76;56.81;101300.84;4976994;28;20033;-61
2021/12/23 07:08:49;;;;;;;65.85;24.98;;;;;;;5.82;56.18;101298.97;4992315;28;20038;-64
2021/12/23 07:11:15;;;;;;;80.07;28.35;;;;;;;5.66;56.59;101294.47;4974253;28;20086;-61
2021/12/23 07:13:40;;;;;;;83.65;27.58;;;;;;;6.16;54.64;101309.59;4991319;28;20070;-61
2021/12/23 07:16:06;;;;;;;70.05;27.35;;;;;;;6.51;54.37;101313.63;4974804;28;20039;-62
2021/12/23 07:18:31;;;;;;;75.60;26.73;;;;;;;6.98;52.66;101315.44;4992057;28;20037;-62
2021/12/23 07:20:57;;;;;;;75.07;26.98;;;;;;;6.35;53.88;101318.16;4974545;28;20038;-64
2021/12/23 07:23:22;;;;;;;76.28;27.17;;;;;;;6.36;54.03;101319.78;4991673;28;20091;-63
2021/12/23 07:25:47;;;;;;;74.22;26.13;;;;;;;5.98;54.69;101310.81;4991733;28;20724;-63
2021/12/23 07:28:13;;;;;;;71.30;27.35;;;;;;;6.18;54.28;101316.41;4991617;28;20045;-61
2021/12/23 07:30:38;;;;;;;76.05;27.77;;;;;;;6.20;55.16;101316.16;4975024;28;20043;-64
2021/12/23 07:33:04;;;;;;;71.72;27.00;;;;;;;6.37;54.29;101317.91;4991278;28;20026;-63
2021/12/23 07:35:29;;;;;;;79.05;28.95;;;;;;;5.54;56.73;101316.41;4958929;28;20053;-63
2021/12/23 07:37:57;;;;;;;75.43;27.27;;;;;;;5.94;55.72;101313.22;4991467;28;20037;-63
2021/12/23 07:40:22;;;;;;;80.10;27.15;;;;;;;6.49;54.65;101302.16;4991925;28;20046;-63
2021/12/23 07:42:56;;;;;;;69.68;27.63;;;;;;;6.14;55.33;101301.69;4975062;28;20046;-64
2021/12/23 07:45:25;;;;;;;73.95;26.70;;;;;;;5.68;57.01;101303.19;4974984;28;20027;-62
2021/12/23 07:47:50;;;;;;;71.72;27.00;;;;;;;5.63;57.09;101283.06;4992239;28;20031;-62
2021/12/23 07:50:15;;;;;;;72.03;26.45;;;;;;;6.12;55.44;101264.91;4974750;28;20066;-63
2021/12/23 07:52:41;;;;;;;69.53;25.27;;;;;;;6.09;56.01;101266.28;4991972;28;20030;-62
2021/12/23 07:55:07;;;;;;;68.40;26.17;;;;;;;5.86;56.13;101270.16;4974276;28;20023;-61
2021/12/23 07:57:32;;;;;;;70.90;25.55;;;;;;;6.14;55.43;101273.63;4974634;28;20046;-61
2021/12/23 07:59:59;;;;;;;73.32;27.75;;;;;;;5.49;56.59;101273.69;4974030;28;20046;-61
2021/12/23 08:02:24;;;;;;;76.28;26.58;;;;;;;6.05;55.51;101276.03;4958694;28;20031;-63
2021/12/23 08:04:49;;;;;;;72.50;27.75;;;;;;;6.09;55.26;101282.63;4991598;28;20031;-63
2021/12/23 08:07:15;;;;;;;65.57;25.70;;;;;;;5.67;56.93;101263.50;4974251;28;20039;-62
2021/12/23 08:09:40;;;;;;;80.45;28.58;;;;;;;5.48;57.46;101260.34;4991741;28;20030;-63
2021/12/23 08:12:08;;;;;;;70.90;26.17;;;;;;;5.78;56.45;101259.75;4991285;28;20034;-63
2021/12/23 08:14:33;;;;;;;71.68;26.27;;;;;;;6.14;55.59;101268.19;4991804;28;20034;-61
2021/12/23 08:16:59;;;;;;;67.18;26.35;;;;;;;5.49;57.94;101268.25;4974655;28;20055;-61
2021/12/23 08:19:24;;;;;;;78.43;27.92;;;;;;;5.48;57.35;101253.00;4974154;28;20035;-64
2021/12/23 08:21:49;;;;;;;82.45;27.92;;;;;;;5.29;58.28;101247.09;4991594;28;20041;-62
2021/12/23 08:24:15;;;;;;;77.10;27.88;;;;;;;5.77;56.74;101241.78;4990938;28;20050;-63
2021/12/23 08:26:43;;;;;;;72.32;25.95;;;;;;;5.78;56.59;101243.44;4994960;28;20023;-63
2021/12/23 08:29:09;;;;;;;74.15;27.17;;;;;;;5.91;56.68;101232.09;4961835;28;20027;-62
2021/12/23 08:31:35;;;;;;;80.38;29.48;;;;;;;5.91;56.30;101226.66;4994992;28;20022;-63
2021/12/23 08:34:00;;;;;;;79.07;28.45;;;;;;;5.47;57.39;101224.16;4976250;28;20094;-62
2021/12/23 08:36:26;;;;;;;72.28;25.20;;;;;;;5.27;57.53;101220.19;4982367;28;20030;-64
2021/12/23 08:38:51;;;;;;;77.78;28.50;;;;;;;5.39;58.30;101220.03;4994974;28;20074;-62
2021/12/23 08:41:17;;;;;;;78.63;27.05;;;;;;;5.79;56.91;101206.97;4977259;28;20065;-62
2021/12/23 08:43:44;;;;;;;76.38;27.40;;;;;;;5.68;57.42;101203.38;4977758;28;20035;-62
2021/12/23 08:46:10;;;;;;;72.37;26.90;;;;;;;5.46;57.59;101208.94;4977620;28;20031;-62
2021/12/23 08:48:36;;;;;;;76.30;26.33;;;;;;;5.92;56.80;101195.66;4994418;28;20027;-63
2021/12/23 08:51:01;;;;;;;77.53;27.92;;;;;;;5.57;57.82;101191.59;5001633;28;20033;-64
2021/12/23 08:53:26;;;;;;;71.88;26.33;;;;;;;5.51;57.89;101187.22;4990426;28;20113;-64
2021/12/23 08:55:52;;;;;;;73.45;26.80;;;;;;;5.49;58.29;101186.66;4996590;28;20030;-64
2021/12/23 08:58:17;;;;;;;77.43;27.27;;;;;;;5.42;58.30;101175.16;4980308;28;20505;-63
2021/12/23 09:00:43;;;;;;;72.85;26.38;;;;;;;5.54;58.29;101173.09;5014057;28;20057;-62
2021/12/23 09:03:09;;;;;;;75.80;25.65;;;;;;;5.94;57.32;101168.16;5012208;28;20098;-61
2021/12/23 09:05:40;;;;;;;75.28;26.63;;;;;;;5.35;58.68;101171.88;5013727;28;20039;-62
2021/12/23 09:08:06;;;;;;;78.03;27.15;;;;;;;5.72;57.49;101165.59;5013781;28;20026;-64
2021/12/23 09:10:33;;;;;;;79.18;29.27;;;;;;;5.13;59.39;101150.22;4996352;28;20041;-63
2021/12/23 09:12:59;;;;;;;79.60;28.80;;;;;;;5.14;59.35;101147.22;5013799;28;20038;-63
2021/12/23 09:15:25;;;;;;;73.60;26.42;;;;;;;5.74;57.83;101139.78;5013440;28;20097;-64
2021/12/23 09:17:50;;;;;;;72.30;27.42;;;;;;;5.93;57.31;101134.69;4996403;28;20058;-63
2021/12/23 09:20:17;;;;;;;81.07;26.90;;;;;;;5.52;57.99;101147.22;4990219;28;20031;-62
2021/12/23 09:22:43;;;;;;;74.05;27.92;;;;;;;5.72;57.52;101151.97;5013370;28;20034;-63
2021/12/23 09:25:18;;;;;;;76.30;26.63;;;;;;;5.66;57.87;101155.75;4982148;28;20050;-63
2021/12/23 09:27:58;;;;;;;75.50;25.52;;;;;;;6.00;56.86;101142.66;5008071;28;20034;-64
2021/12/23 09:33:10;;;;;;;69.80;26.13;;;;;;;5.80;57.88;101155.00;4989835;28;20033;-62
2021/12/23 09:35:35;;;;;;;69.45;26.23;;;;;;;6.27;56.67;101147.94;4965581;28;20023;-63
2021/12/23 09:38:01;;;;;;;75.78;26.23;;;;;;;6.26;56.33;101140.84;5000506;28;20038;-64
2021/12/23 09:40:29;;;;;;;66.22;24.40;;;;;;;5.89;57.78;101130.84;5001243;28;21611;-63
2021/12/23 09:42:59;;;;;;;65.60;24.38;;;;;;;6.11;57.57;101127.19;5002691;28;20026;-62
2021/12/23 09:45:25;;;;;;;66.85;23.13;;;;;;;5.61;58.67;101124.69;5001938;28;20018;-62
2021/12/23 09:47:50;;;;;;;65.28;24.02;;;;;;;5.74;57.92;101128.03;5006132;28;20037;-63
2021/12/23 09:50:20;;;;;;;72.05;25.00;;;;;;;5.38;59.64;101130.56;5005908;28;20042;-63
2021/12/23 09:52:49;;;;;;;70.85;26.08;;;;;;;5.39;59.69;101132.19;5009110;28;20078;-62
2021/12/23 09:55:18;;;;;;;68.13;24.92;;;;;;;6.31;57.22;101115.53;5012684;28;20037;-64
2021/12/23 09:57:48;;;;;;;73.00;25.98;;;;;;;6.35;56.62;101127.53;5013142;28;20765;-62
2021/12/23 10:00:16;;;;;;;68.68;25.05;;;;;;;5.97;58.05;101122.22;5012578;28;20399;-63
2021/12/23 10:02:42;;;;;;;64.25;23.52;;;;;;;6.31;56.67;101116.34;5012783;28;20066;-63
2021/12/23 10:05:11;;;;;;;70.18;25.83;;;;;;;5.64;58.82;101116.03;5012602;28;20034;-64
2021/12/23 10:07:38;;;;;;;61.40;23.45;;;;;;;5.83;57.87;101121.03;4995214;28;20038;-65
2021/12/23 10:10:11;;;;;;;64.47;24.05;;;;;;;6.15;57.47;101125.56;5006911;28;20037;-62
2021/12/23 10:27:26;;;;;;;64.53;23.70;;;;;;;6.46;57.42;101079.34;4996378;28;20115;-62
2021/12/23 10:38:12;;;;;;;59.63;24.17;;;;;;;6.57;56.38;101074.72;4992958;28;20093;-63
2021/12/23 10:40:44;;;;;;;59.30;24.17;;;;;;;7.04;55.60;101079.13;4992619;28;20046;-63
2021/12/23 10:43:19;;;;;;;61.15;23.20;;;;;;;6.68;56.37;101071.75;4992863;28;20035;-63
2021/12/23 10:45:55;;;;;;;66.63;24.90;;;;;;;7.20;55.88;101071.75;4992492;28;20031;-64
2021/12/23 10:48:21;;;;;;;60.22;23.45;;;;;;;6.80;55.49;101067.94;4976545;28;20090;-62
2021/12/23 10:50:56;;;;;;;66.57;24.65;;;;;;;7.47;54.56;101065.97;4975529;28;20053;-64
2021/12/23 10:53:44;;;;;;;59.05;24.42;;;;;;;7.26;54.46;101071.44;4974944;28;20029;-64
2021/12/23 10:59:19;;;;;;;61.13;23.40;;;;;;;7.57;54.77;101076.03;4992497;28;20046;-62
2021/12/23 11:02:04;;;;;;;68.90;24.63;;;;;;;8.02;53.40;101074.22;5002270;28;20083;-65
2021/12/23 11:04:36;;;;;;;60.20;24.55;;;;;;;7.17;55.08;101072.28;4984594;28;20062;-64
2021/12/23 11:07:25;;;;;;;56.60;24.00;;;;;;;7.26;56.25;101066.00;4984062;28;20031;-64
2021/12/23 11:37:55;;;;;;;53.47;23.00;;;;;;;7.39;56.15;100971.88;5000386;28;20049;-65
2021/12/23 11:40:47;;;;;;;52.88;22.75;;;;;;;8.36;53.81;100970.50;4979924;28;20018;-64
2021/12/23 11:45:50;;;;;;;54.08;24.13;;;;;;;8.55;52.95;100956.19;4999550;28;20090;-63
2021/12/23 11:48:16;;;;;;;53.97;22.60;;;;;;;8.47;53.18;100951.34;4966888;28;20033;-64
2021/12/23 11:50:55;;;;;;;57.17;23.48;;;;;;;8.76;52.47;100953.25;4983248;28;20027;-62
2021/12/23 11:53:27;;;;;;;53.78;22.60;;;;;;;8.50;53.22;100934.38;5004133;28;20022;-65
2021/12/23 11:55:54;;;;;;;55.58;23.60;;;;;;;7.66;54.93;100926.19;4983005;28;20023;-63
2021/12/23 11:58:25;;;;;;;47.78;21.17;;;;;;;7.63;55.66;100919.38;4983779;28;20033;-63
2021/12/23 12:01:10;;;;;;;49.83;22.85;;;;;;;8.41;53.88;100917.72;4987188;28;20035;-62
2021/12/23 12:03:52;;;;;;;51.28;22.45;;;;;;;8.28;54.25;100910.22;5001597;28;20065;-61
2021/12/23 12:06:20;;;;;;;52.38;21.98;;;;;;;8.39;53.48;100903.56;5006634;28;20031;-65
2021/12/23 12:08:46;;;;;;;51.45;22.20;;;;;;;8.52;53.83;100905.63;5003659;28;20125;-64
2021/12/23 12:11:21;;;;;;;50.45;22.83;;;;;;;8.81;53.12;100901.25;4978607;28;20030;-63
2021/12/23 12:13:48;;;;;;;50.78;22.25;;;;;;;8.66;52.92;100897.59;4993397;28;20039;-63
2021/12/23 12:16:33;;;;;;;55.42;23.45;;;;;;;8.22;54.54;100889.50;5003334;28;20026;-62
2021/12/23 12:18:59;;;;;;;51.85;22.90;;;;;;;8.43;53.79;100874.59;5007363;28;20034;-65
2021/12/23 12:21:33;;;;;;;53.83;22.35;;;;;;;8.57;53.14;100876.66;4998146;28;20042;-64
2021/12/23 12:24:07;;;;;;;52.55;22.52;;;;;;;8.42;53.78;100878.41;5014816;28;20069;-63
2021/12/23 12:26:35;;;;;;;54.33;23.00;;;;;;;8.60;53.03;100895.19;5014540;28;20053;-65